sensor_id;sensor_type;location;lat;lon;timestamp;temperature;humidity
37678;DHT22;23517;50.390;8.616;2023-05-03T00:00:14;5.00;37.60
37678;DHT22;23517;50.390;8.616;2023-05-03T00:02:44;4.90;38.20
37678;DHT22;23517;50.390;8.616;2023-05-03T00:05:11;4.90;38.50
37678;DHT22;23517;50.390;8.616;2023-05-03T00:07:42;4.80;38.50
37678;DHT22;23517;50.390;8.616;2023-05-03T00:10:13;4.70;38.80
37678;DHT22;23517;50.390;8.616;2023-05-03T00:12:42;4.50;39.30
37678;DHT22;23517;50.390;8.616;2023-05-03T00:15:09;4.40;39.90
37678;DHT22;23517;50.390;8.616;2023-05-03T00:17:37;4.40;40.00
37678;DHT22;23517;50.390;8.616;2023-05-03T00:20:04;4.30;40.20
37678;DHT22;23517;50.390;8.616;2023-05-03T00:22:31;4.30;41.00
37678;DHT22;23517;50.390;8.616;2023-05-03T00:24:59;4.20;41.20
37678;DHT22;23517;50.390;8.616;2023-05-03T00:27:25;4.10;41.70
37678;DHT22;23517;50.390;8.616;2023-05-03T00:29:53;4.20;41.30
37678;DHT22;23517;50.390;8.616;2023-05-03T00:32:20;4.20;41.40
37678;DHT22;23517;50.390;8.616;2023-05-03T00:34:53;4.10;41.40
37678;DHT22;23517;50.390;8.616;2023-05-03T00:37:22;4.00;40.80
37678;DHT22;23517;50.390;8.616;2023-05-03T00:39:49;4.00;40.90
37678;DHT22;23517;50.390;8.616;2023-05-03T00:42:17;4.00;41.70
37678;DHT22;23517;50.390;8.616;2023-05-03T00:44:44;3.90;41.80
37678;DHT22;23517;50.390;8.616;2023-05-03T00:47:10;4.00;42.00
37678;DHT22;23517;50.390;8.616;2023-05-03T00:49:38;3.90;41.40
37678;DHT22;23517;50.390;8.616;2023-05-03T00:52:05;3.90;41.80
37678;DHT22;23517;50.390;8.616;2023-05-03T00:54:32;3.90;41.80
37678;DHT22;23517;50.390;8.616;2023-05-03T00:57:00;3.80;41.90
37678;DHT22;23517;50.390;8.616;2023-05-03T00:59:28;3.90;42.30
37678;DHT22;23517;50.390;8.616;2023-05-03T01:01:54;3.90;41.50
37678;DHT22;23517;50.390;8.616;2023-05-03T01:04:22;3.80;41.20
37678;DHT22;23517;50.390;8.616;2023-05-03T01:10:11;3.70;41.80
37678;DHT22;23517;50.390;8.616;2023-05-03T01:13:23;3.60;42.00
37678;DHT22;23517;50.390;8.616;2023-05-03T01:16:08;3.60;42.50
37678;DHT22;23517;50.390;8.616;2023-05-03T01:18:40;3.60;42.60
37678;DHT22;23517;50.390;8.616;2023-05-03T01:21:15;3.50;43.20
37678;DHT22;23517;50.390;8.616;2023-05-03T01:24:06;3.50;43.20
37678;DHT22;23517;50.390;8.616;2023-05-03T01:26:37;3.50;42.90
37678;DHT22;23517;50.390;8.616;2023-05-03T01:29:04;3.40;42.60
37678;DHT22;23517;50.390;8.616;2023-05-03T01:31:36;3.40;42.50
37678;DHT22;23517;50.390;8.616;2023-05-03T01:34:43;3.30;42.00
37678;DHT22;23517;50.390;8.616;2023-05-03T01:37:15;3.30;42.80
37678;DHT22;23517;50.390;8.616;2023-05-03T01:40:03;3.20;43.60
37678;DHT22;23517;50.390;8.616;2023-05-03T01:42:36;3.20;43.80
37678;DHT22;23517;50.390;8.616;2023-05-03T01:45:04;3.20;43.80
37678;DHT22;23517;50.390;8.616;2023-05-03T01:47:31;3.20;43.80
37678;DHT22;23517;50.390;8.616;2023-05-03T01:49:58;3.20;43.80
37678;DHT22;23517;50.390;8.616;2023-05-03T01:52:25;3.20;44.50
37678;DHT22;23517;50.390;8.616;2023-05-03T01:54:52;3.10;43.90
37678;DHT22;23517;50.390;8.616;2023-05-03T01:57:18;3.10;43.80
37678;DHT22;23517;50.390;8.616;2023-05-03T01:59:45;3.10;43.80
37678;DHT22;23517;50.390;8.616;2023-05-03T02:02:12;3.10;43.80
37678;DHT22;23517;50.390;8.616;2023-05-03T02:04:38;3.10;43.80
37678;DHT22;23517;50.390;8.616;2023-05-03T02:07:05;3.00;43.70
37678;DHT22;23517;50.390;8.616;2023-05-03T02:09:32;3.00;43.70
37678;DHT22;23517;50.390;8.616;2023-05-03T02:11:59;2.90;43.70
37678;DHT22;23517;50.390;8.616;2023-05-03T02:14:25;2.90;43.70
37678;DHT22;23517;50.390;8.616;2023-05-03T02:16:52;2.80;43.60
37678;DHT22;23517;50.390;8.616;2023-05-03T02:19:21;2.90;43.70
37678;DHT22;23517;50.390;8.616;2023-05-03T02:21:47;2.70;43.60
37678;DHT22;23517;50.390;8.616;2023-05-03T02:24:14;2.70;43.60
37678;DHT22;23517;50.390;8.616;2023-05-03T02:26:45;2.70;44.40
37678;DHT22;23517;50.390;8.616;2023-05-03T02:29:11;2.80;44.40
37678;DHT22;23517;50.390;8.616;2023-05-03T02:31:40;2.80;44.40
37678;DHT22;23517;50.390;8.616;2023-05-03T02:34:09;2.90;43.80
37678;DHT22;23517;50.390;8.616;2023-05-03T02:36:37;2.90;43.70
37678;DHT22;23517;50.390;8.616;2023-05-03T02:39:04;2.90;43.70
37678;DHT22;23517;50.390;8.616;2023-05-03T02:41:31;2.90;43.70
37678;DHT22;23517;50.390;8.616;2023-05-03T02:43:57;2.90;43.70
37678;DHT22;23517;50.390;8.616;2023-05-03T02:46:24;3.00;43.70
37678;DHT22;23517;50.390;8.616;2023-05-03T02:48:51;2.90;43.70
37678;DHT22;23517;50.390;8.616;2023-05-03T02:51:18;2.90;43.80
37678;DHT22;23517;50.390;8.616;2023-05-03T02:53:44;2.90;43.70
37678;DHT22;23517;50.390;8.616;2023-05-03T02:56:11;2.90;43.70
37678;DHT22;23517;50.390;8.616;2023-05-03T02:58:37;2.80;43.70
37678;DHT22;23517;50.390;8.616;2023-05-03T03:01:04;2.80;43.70
37678;DHT22;23517;50.390;8.616;2023-05-03T03:03:31;2.80;43.60
37678;DHT22;23517;50.390;8.616;2023-05-03T03:05:58;2.70;43.60
37678;DHT22;23517;50.390;8.616;2023-05-03T03:08:24;2.80;43.60
37678;DHT22;23517;50.390;8.616;2023-05-03T03:10:51;2.70;43.60
37678;DHT22;23517;50.390;8.616;2023-05-03T03:13:18;2.70;43.70
37678;DHT22;23517;50.390;8.616;2023-05-03T03:15:44;2.70;43.60
37678;DHT22;23517;50.390;8.616;2023-05-03T03:18:11;2.60;44.00
37678;DHT22;23517;50.390;8.616;2023-05-03T03:20:38;2.60;43.50
37678;DHT22;23517;50.390;8.616;2023-05-03T03:23:05;2.60;43.50
37678;DHT22;23517;50.390;8.616;2023-05-03T03:25:32;2.60;43.70
37678;DHT22;23517;50.390;8.616;2023-05-03T03:27:59;2.50;44.00
37678;DHT22;23517;50.390;8.616;2023-05-03T03:30:26;2.40;44.20
37678;DHT22;23517;50.390;8.616;2023-05-03T03:32:52;2.50;45.00
37678;DHT22;23517;50.390;8.616;2023-05-03T03:35:19;2.50;44.50
37678;DHT22;23517;50.390;8.616;2023-05-03T03:37:46;2.40;43.50
37678;DHT22;23517;50.390;8.616;2023-05-03T03:40:13;2.40;44.60
37678;DHT22;23517;50.390;8.616;2023-05-03T03:42:40;2.30;45.30
37678;DHT22;23517;50.390;8.616;2023-05-03T03:45:07;2.30;46.20
37678;DHT22;23517;50.390;8.616;2023-05-03T03:47:34;2.50;46.30
37678;DHT22;23517;50.390;8.616;2023-05-03T03:50:01;2.50;46.10
37678;DHT22;23517;50.390;8.616;2023-05-03T03:52:28;2.60;45.60
37678;DHT22;23517;50.390;8.616;2023-05-03T03:54:55;2.60;45.60
37678;DHT22;23517;50.390;8.616;2023-05-03T03:57:22;2.60;44.20
37678;DHT22;23517;50.390;8.616;2023-05-03T03:59:50;2.60;44.40
37678;DHT22;23517;50.390;8.616;2023-05-03T04:02:17;2.60;44.80
37678;DHT22;23517;50.390;8.616;2023-05-03T04:04:43;2.60;44.50
37678;DHT22;23517;50.390;8.616;2023-05-03T04:07:10;2.60;45.20
37678;DHT22;23517;50.390;8.616;2023-05-03T04:09:37;2.60;45.40
37678;DHT22;23517;50.390;8.616;2023-05-03T04:12:04;2.60;44.50
37678;DHT22;23517;50.390;8.616;2023-05-03T04:14:30;2.60;44.60
37678;DHT22;23517;50.390;8.616;2023-05-03T04:16:57;2.70;44.40
37678;DHT22;23517;50.390;8.616;2023-05-03T04:19:24;2.70;44.20
37678;DHT22;23517;50.390;8.616;2023-05-03T04:21:51;2.80;44.50
37678;DHT22;23517;50.390;8.616;2023-05-03T04:24:18;2.80;43.60
37678;DHT22;23517;50.390;8.616;2023-05-03T04:26:45;2.80;43.60
37678;DHT22;23517;50.390;8.616;2023-05-03T04:29:11;2.80;43.80
37678;DHT22;23517;50.390;8.616;2023-05-03T04:31:38;2.80;43.70
37678;DHT22;23517;50.390;8.616;2023-05-03T04:34:05;2.90;43.70
37678;DHT22;23517;50.390;8.616;2023-05-03T04:36:32;2.90;43.70
37678;DHT22;23517;50.390;8.616;2023-05-03T04:38:59;2.90;43.70
37678;DHT22;23517;50.390;8.616;2023-05-03T04:41:26;2.80;43.60
37678;DHT22;23517;50.390;8.616;2023-05-03T04:43:53;2.90;43.70
37678;DHT22;23517;50.390;8.616;2023-05-03T04:46:19;2.90;43.70
37678;DHT22;23517;50.390;8.616;2023-05-03T04:48:46;2.90;43.70
37678;DHT22;23517;50.390;8.616;2023-05-03T04:51:13;2.80;43.70
37678;DHT22;23517;50.390;8.616;2023-05-03T04:53:40;2.90;43.70
37678;DHT22;23517;50.390;8.616;2023-05-03T04:56:06;3.00;43.70
37678;DHT22;23517;50.390;8.616;2023-05-03T04:58:33;3.00;43.70
37678;DHT22;23517;50.390;8.616;2023-05-03T05:01:00;3.00;44.20
37678;DHT22;23517;50.390;8.616;2023-05-03T05:03:28;3.10;44.80
37678;DHT22;23517;50.390;8.616;2023-05-03T05:05:56;3.30;43.90
37678;DHT22;23517;50.390;8.616;2023-05-03T05:08:24;3.40;43.90
37678;DHT22;23517;50.390;8.616;2023-05-03T05:10:51;3.50;44.00
37678;DHT22;23517;50.390;8.616;2023-05-03T05:13:18;3.70;44.10
37678;DHT22;23517;50.390;8.616;2023-05-03T05:15:45;3.80;44.00
37678;DHT22;23517;50.390;8.616;2023-05-03T05:18:11;3.90;44.10
37678;DHT22;23517;50.390;8.616;2023-05-03T05:20:47;4.10;42.90
37678;DHT22;23517;50.390;8.616;2023-05-03T05:23:13;4.20;42.10
37678;DHT22;23517;50.390;8.616;2023-05-03T05:25:40;4.40;42.10
37678;DHT22;23517;50.390;8.616;2023-05-03T05:28:08;4.80;39.90
37678;DHT22;23517;50.390;8.616;2023-05-03T05:30:36;5.10;38.90
37678;DHT22;23517;50.390;8.616;2023-05-03T05:33:03;5.40;37.30
37678;DHT22;23517;50.390;8.616;2023-05-03T05:35:31;5.70;36.90
37678;DHT22;23517;50.390;8.616;2023-05-03T05:37:58;6.00;34.90
37678;DHT22;23517;50.390;8.616;2023-05-03T05:40:25;6.20;34.30
37678;DHT22;23517;50.390;8.616;2023-05-03T05:42:52;6.50;33.20
37678;DHT22;23517;50.390;8.616;2023-05-03T05:45:18;6.80;32.20
37678;DHT22;23517;50.390;8.616;2023-05-03T05:47:45;7.10;31.00
37678;DHT22;23517;50.390;8.616;2023-05-03T05:50:12;7.40;29.50
37678;DHT22;23517;50.390;8.616;2023-05-03T05:52:45;7.80;28.20
37678;DHT22;23517;50.390;8.616;2023-05-03T05:55:11;8.30;26.60
37678;DHT22;23517;50.390;8.616;2023-05-03T05:57:40;8.90;24.90
37678;DHT22;23517;50.390;8.616;2023-05-03T06:00:07;10.40;21.50
37678;DHT22;23517;50.390;8.616;2023-05-03T06:02:40;12.10;16.90
37678;DHT22;23517;50.390;8.616;2023-05-03T06:05:08;13.60;15.60
37678;DHT22;23517;50.390;8.616;2023-05-03T06:07:35;14.50;12.50
37678;DHT22;23517;50.390;8.616;2023-05-03T06:10:02;15.60;11.20
37678;DHT22;23517;50.390;8.616;2023-05-03T06:12:30;16.90;8.50
37678;DHT22;23517;50.390;8.616;2023-05-03T06:14:57;18.40;5.20
37678;DHT22;23517;50.390;8.616;2023-05-03T06:17:28;18.20;5.20
37678;DHT22;23517;50.390;8.616;2023-05-03T06:19:56;18.60;5.50
37678;DHT22;23517;50.390;8.616;2023-05-03T06:22:23;19.60;3.40
37678;DHT22;23517;50.390;8.616;2023-05-03T06:24:50;19.90;3.40
37678;DHT22;23517;50.390;8.616;2023-05-03T06:27:17;19.80;2.00
37678;DHT22;23517;50.390;8.616;2023-05-03T06:29:44;18.30;3.70
37678;DHT22;23517;50.390;8.616;2023-05-03T06:32:11;18.00;5.00
37678;DHT22;23517;50.390;8.616;2023-05-03T06:34:38;18.80;2.90
37678;DHT22;23517;50.390;8.616;2023-05-03T06:37:05;19.80;2.10
37678;DHT22;23517;50.390;8.616;2023-05-03T06:39:31;19.90;2.10
37678;DHT22;23517;50.390;8.616;2023-05-03T06:41:58;19.80;2.30
37678;DHT22;23517;50.390;8.616;2023-05-03T06:44:25;19.80;2.00
37678;DHT22;23517;50.390;8.616;2023-05-03T06:46:52;20.30;1.70
37678;DHT22;23517;50.390;8.616;2023-05-03T06:49:18;19.50;2.30
37678;DHT22;23517;50.390;8.616;2023-05-03T06:51:45;19.10;2.60
37678;DHT22;23517;50.390;8.616;2023-05-03T06:54:12;19.70;2.20
37678;DHT22;23517;50.390;8.616;2023-05-03T06:56:40;20.50;1.50
37678;DHT22;23517;50.390;8.616;2023-05-03T06:59:07;19.60;2.70
37678;DHT22;23517;50.390;8.616;2023-05-03T07:01:34;20.50;1.20
37678;DHT22;23517;50.390;8.616;2023-05-03T07:04:00;19.50;2.90
37678;DHT22;23517;50.390;8.616;2023-05-03T07:06:27;20.20;2.40
37678;DHT22;23517;50.390;8.616;2023-05-03T07:08:54;21.70;1.00
37678;DHT22;23517;50.390;8.616;2023-05-03T07:11:21;21.50;1.00
37678;DHT22;23517;50.390;8.616;2023-05-03T07:13:52;21.00;1.00
37678;DHT22;23517;50.390;8.616;2023-05-03T07:16:20;21.10;1.00
37678;DHT22;23517;50.390;8.616;2023-05-03T07:18:48;19.80;1.00
37678;DHT22;23517;50.390;8.616;2023-05-03T07:21:14;20.90;1.00
37678;DHT22;23517;50.390;8.616;2023-05-03T07:23:42;21.00;1.00
37678;DHT22;23517;50.390;8.616;2023-05-03T07:26:09;21.10;1.00
37678;DHT22;23517;50.390;8.616;2023-05-03T07:28:36;21.60;1.00
37678;DHT22;23517;50.390;8.616;2023-05-03T07:31:03;21.60;1.00
37678;DHT22;23517;50.390;8.616;2023-05-03T07:33:33;21.50;12.20
37678;DHT22;23517;50.390;8.616;2023-05-03T07:36:00;20.80;11.50
37678;DHT22;23517;50.390;8.616;2023-05-03T07:38:27;21.00;1.10
37678;DHT22;23517;50.390;8.616;2023-05-03T07:40:54;22.60;1.00
37678;DHT22;23517;50.390;8.616;2023-05-03T07:43:21;22.70;1.00
37678;DHT22;23517;50.390;8.616;2023-05-03T07:48:16;20.60;1.00
37678;DHT22;23517;50.390;8.616;2023-05-03T07:50:43;21.50;1.00
37678;DHT22;23517;50.390;8.616;2023-05-03T07:53:11;22.20;1.00
37678;DHT22;23517;50.390;8.616;2023-05-03T07:55:38;23.40;1.00
37678;DHT22;23517;50.390;8.616;2023-05-03T07:58:04;23.70;1.00
37678;DHT22;23517;50.390;8.616;2023-05-03T08:00:31;23.50;1.00
37678;DHT22;23517;50.390;8.616;2023-05-03T08:02:58;23.70;1.00
37678;DHT22;23517;50.390;8.616;2023-05-03T08:05:25;23.80;1.00
37678;DHT22;23517;50.390;8.616;2023-05-03T08:07:51;23.10;1.00
37678;DHT22;23517;50.390;8.616;2023-05-03T08:10:20;23.20;1.00
37678;DHT22;23517;50.390;8.616;2023-05-03T08:12:47;22.30;1.00
37678;DHT22;23517;50.390;8.616;2023-05-03T08:15:14;21.60;1.00
37678;DHT22;23517;50.390;8.616;2023-05-03T08:17:41;21.90;1.00
37678;DHT22;23517;50.390;8.616;2023-05-03T08:20:09;21.60;1.00
37678;DHT22;23517;50.390;8.616;2023-05-03T08:22:37;21.30;22.70
37678;DHT22;23517;50.390;8.616;2023-05-03T08:25:06;22.20;16.70
37678;DHT22;23517;50.390;8.616;2023-05-03T08:27:33;23.00;16.00
37678;DHT22;23517;50.390;8.616;2023-05-03T08:30:00;22.80;15.30
37678;DHT22;23517;50.390;8.616;2023-05-03T08:32:27;22.50;11.20
37678;DHT22;23517;50.390;8.616;2023-05-03T08:34:55;22.90;10.80
37678;DHT22;23517;50.390;8.616;2023-05-03T08:37:22;23.00;1.00
37678;DHT22;23517;50.390;8.616;2023-05-03T08:39:49;23.00;1.00
37678;DHT22;23517;50.390;8.616;2023-05-03T08:42:16;22.40;1.00
37678;DHT22;23517;50.390;8.616;2023-05-03T08:44:47;22.40;1.00
37678;DHT22;23517;50.390;8.616;2023-05-03T08:47:15;22.30;2.80
37678;DHT22;23517;50.390;8.616;2023-05-03T08:49:43;22.80;1.00
37678;DHT22;23517;50.390;8.616;2023-05-03T08:52:13;23.80;1.00
37678;DHT22;23517;50.390;8.616;2023-05-03T08:54:40;24.20;1.00
37678;DHT22;23517;50.390;8.616;2023-05-03T08:57:13;23.60;1.00
37678;DHT22;23517;50.390;8.616;2023-05-03T08:59:50;22.90;1.00
37678;DHT22;23517;50.390;8.616;2023-05-03T09:04:51;22.60;1.00
37678;DHT22;23517;50.390;8.616;2023-05-03T09:07:18;22.70;1.00
37678;DHT22;23517;50.390;8.616;2023-05-03T09:09:46;22.60;1.00
37678;DHT22;23517;50.390;8.616;2023-05-03T09:12:33;23.20;1.00
37678;DHT22;23517;50.390;8.616;2023-05-03T09:15:02;24.20;1.00
37678;DHT22;23517;50.390;8.616;2023-05-03T09:17:29;23.90;1.00
37678;DHT22;23517;50.390;8.616;2023-05-03T09:19:57;23.10;1.00
37678;DHT22;23517;50.390;8.616;2023-05-03T09:22:31;23.50;1.00
37678;DHT22;23517;50.390;8.616;2023-05-03T09:25:00;23.80;1.00
37678;DHT22;23517;50.390;8.616;2023-05-03T09:27:27;23.10;1.00
37678;DHT22;23517;50.390;8.616;2023-05-03T09:29:54;22.60;1.00
37678;DHT22;23517;50.390;8.616;2023-05-03T09:32:21;23.20;1.00
37678;DHT22;23517;50.390;8.616;2023-05-03T09:35:08;24.30;1.00
37678;DHT22;23517;50.390;8.616;2023-05-03T09:37:35;23.70;1.00
37678;DHT22;23517;50.390;8.616;2023-05-03T09:40:04;23.60;1.00
37678;DHT22;23517;50.390;8.616;2023-05-03T09:42:33;23.30;1.00
37678;DHT22;23517;50.390;8.616;2023-05-03T09:45:00;23.60;1.00
37678;DHT22;23517;50.390;8.616;2023-05-03T09:47:27;23.70;1.00
37678;DHT22;23517;50.390;8.616;2023-05-03T09:49:57;23.50;1.00
37678;DHT22;23517;50.390;8.616;2023-05-03T09:52:28;23.00;1.00
37678;DHT22;23517;50.390;8.616;2023-05-03T09:54:56;23.60;1.00
37678;DHT22;23517;50.390;8.616;2023-05-03T09:57:23;23.00;1.00
37678;DHT22;23517;50.390;8.616;2023-05-03T10:02:18;25.30;1.00
37678;DHT22;23517;50.390;8.616;2023-05-03T10:04:50;25.20;1.00
37678;DHT22;23517;50.390;8.616;2023-05-03T10:07:20;24.20;1.00
37678;DHT22;23517;50.390;8.616;2023-05-03T10:09:48;22.70;1.00
37678;DHT22;23517;50.390;8.616;2023-05-03T10:12:15;21.60;1.00
37678;DHT22;23517;50.390;8.616;2023-05-03T10:14:47;20.60;1.00
37678;DHT22;23517;50.390;8.616;2023-05-03T10:17:27;18.90;2.00
37678;DHT22;23517;50.390;8.616;2023-05-03T10:20:44;17.90;4.10
37678;DHT22;23517;50.390;8.616;2023-05-03T10:23:16;16.80;6.30
37678;DHT22;23517;50.390;8.616;2023-05-03T10:28:34;15.90;7.00
37678;DHT22;23517;50.390;8.616;2023-05-03T10:31:01;15.80;7.50
37678;DHT22;23517;50.390;8.616;2023-05-03T10:33:32;15.60;8.20
37678;DHT22;23517;50.390;8.616;2023-05-03T10:36:06;15.30;8.10
37678;DHT22;23517;50.390;8.616;2023-05-03T10:38:36;15.00;8.00
37678;DHT22;23517;50.390;8.616;2023-05-03T10:41:02;15.00;9.30
37678;DHT22;23517;50.390;8.616;2023-05-03T10:46:03;15.00;7.90
37678;DHT22;23517;50.390;8.616;2023-05-03T10:48:34;14.80;8.50
37678;DHT22;23517;50.390;8.616;2023-05-03T10:51:33;14.50;8.50
37678;DHT22;23517;50.390;8.616;2023-05-03T10:54:02;14.50;8.70
37678;DHT22;23517;50.390;8.616;2023-05-03T10:56:29;14.70;9.40
37678;DHT22;23517;50.390;8.616;2023-05-03T10:58:56;14.80;9.00
37678;DHT22;23517;50.390;8.616;2023-05-03T11:01:25;14.70;9.10
37678;DHT22;23517;50.390;8.616;2023-05-03T11:03:58;14.60;8.50
37678;DHT22;23517;50.390;8.616;2023-05-03T11:06:36;14.70;9.10
37678;DHT22;23517;50.390;8.616;2023-05-03T11:09:08;14.90;9.30
37678;DHT22;23517;50.390;8.616;2023-05-03T11:11:37;14.90;9.10
37678;DHT22;23517;50.390;8.616;2023-05-03T11:14:05;14.90;9.40
37678;DHT22;23517;50.390;8.616;2023-05-03T11:16:34;15.00;9.70
37678;DHT22;23517;50.390;8.616;2023-05-03T11:19:02;14.80;9.40
37678;DHT22;23517;50.390;8.616;2023-05-03T11:21:29;14.90;8.10
37678;DHT22;23517;50.390;8.616;2023-05-03T11:23:57;14.90;8.00
37678;DHT22;23517;50.390;8.616;2023-05-03T11:26:24;14.80;7.90
37678;DHT22;23517;50.390;8.616;2023-05-03T11:28:53;14.80;9.20
37678;DHT22;23517;50.390;8.616;2023-05-03T11:31:20;14.90;9.50
37678;DHT22;23517;50.390;8.616;2023-05-03T11:33:48;14.80;7.90
37678;DHT22;23517;50.390;8.616;2023-05-03T11:36:15;14.80;8.10
37678;DHT22;23517;50.390;8.616;2023-05-03T11:38:41;15.10;8.10
37678;DHT22;23517;50.390;8.616;2023-05-03T11:41:20;14.90;7.50
37678;DHT22;23517;50.390;8.616;2023-05-03T11:43:48;15.00;6.90
37678;DHT22;23517;50.390;8.616;2023-05-03T11:46:32;15.00;7.90
37678;DHT22;23517;50.390;8.616;2023-05-03T11:49:02;15.10;8.00
37678;DHT22;23517;50.390;8.616;2023-05-03T11:51:29;15.20;7.90
37678;DHT22;23517;50.390;8.616;2023-05-03T11:53:59;15.30;7.30
37678;DHT22;23517;50.390;8.616;2023-05-03T11:56:46;15.30;7.40
37678;DHT22;23517;50.390;8.616;2023-05-03T11:59:13;15.30;8.10
37678;DHT22;23517;50.390;8.616;2023-05-03T12:01:40;15.30;8.70
37678;DHT22;23517;50.390;8.616;2023-05-03T12:04:08;15.40;8.10
37678;DHT22;23517;50.390;8.616;2023-05-03T12:06:36;15.50;8.00
37678;DHT22;23517;50.390;8.616;2023-05-03T12:09:12;15.60;7.50
37678;DHT22;23517;50.390;8.616;2023-05-03T12:11:41;15.50;7.70
37678;DHT22;23517;50.390;8.616;2023-05-03T12:14:10;15.50;7.70
37678;DHT22;23517;50.390;8.616;2023-05-03T12:16:48;15.60;6.80
37678;DHT22;23517;50.390;8.616;2023-05-03T12:19:28;15.70;7.50
37678;DHT22;23517;50.390;8.616;2023-05-03T12:21:59;15.70;6.90
37678;DHT22;23517;50.390;8.616;2023-05-03T12:24:29;15.70;8.10
37678;DHT22;23517;50.390;8.616;2023-05-03T12:26:59;15.70;8.00
37678;DHT22;23517;50.390;8.616;2023-05-03T12:29:28;15.70;7.70
37678;DHT22;23517;50.390;8.616;2023-05-03T12:32:00;15.60;7.60
37678;DHT22;23517;50.390;8.616;2023-05-03T12:34:29;15.80;8.10
37678;DHT22;23517;50.390;8.616;2023-05-03T12:37:01;16.10;7.50
37678;DHT22;23517;50.390;8.616;2023-05-03T12:39:32;15.90;6.60
37678;DHT22;23517;50.390;8.616;2023-05-03T12:41:59;15.90;6.80
37678;DHT22;23517;50.390;8.616;2023-05-03T12:44:31;15.90;7.70
37678;DHT22;23517;50.390;8.616;2023-05-03T12:47:01;15.90;6.90
37678;DHT22;23517;50.390;8.616;2023-05-03T12:49:29;16.00;6.60
37678;DHT22;23517;50.390;8.616;2023-05-03T12:51:56;16.00;6.70
37678;DHT22;23517;50.390;8.616;2023-05-03T12:54:28;16.10;7.10
37678;DHT22;23517;50.390;8.616;2023-05-03T12:57:00;16.20;7.40
37678;DHT22;23517;50.390;8.616;2023-05-03T12:59:35;16.30;7.10
37678;DHT22;23517;50.390;8.616;2023-05-03T13:02:11;16.30;6.60
37678;DHT22;23517;50.390;8.616;2023-05-03T13:04:42;16.10;5.70
37678;DHT22;23517;50.390;8.616;2023-05-03T13:07:25;16.10;6.40
37678;DHT22;23517;50.390;8.616;2023-05-03T13:09:57;16.00;6.50
37678;DHT22;23517;50.390;8.616;2023-05-03T13:12:27;16.10;6.70
37678;DHT22;23517;50.390;8.616;2023-05-03T13:14:54;16.20;7.00
37678;DHT22;23517;50.390;8.616;2023-05-03T13:17:21;16.20;7.20
37678;DHT22;23517;50.390;8.616;2023-05-03T13:19:50;16.30;7.50
37678;DHT22;23517;50.390;8.616;2023-05-03T13:22:18;16.30;7.20
37678;DHT22;23517;50.390;8.616;2023-05-03T13:24:46;16.20;7.20
37678;DHT22;23517;50.390;8.616;2023-05-03T13:27:16;16.30;7.90
37678;DHT22;23517;50.390;8.616;2023-05-03T13:29:43;16.30;7.60
37678;DHT22;23517;50.390;8.616;2023-05-03T13:32:13;16.40;7.10
37678;DHT22;23517;50.390;8.616;2023-05-03T13:34:40;16.50;6.90
37678;DHT22;23517;50.390;8.616;2023-05-03T13:37:07;16.60;6.80
37678;DHT22;23517;50.390;8.616;2023-05-03T13:39:33;16.60;6.50
37678;DHT22;23517;50.390;8.616;2023-05-03T13:42:00;16.50;7.30
37678;DHT22;23517;50.390;8.616;2023-05-03T13:44:27;16.60;6.20
37678;DHT22;23517;50.390;8.616;2023-05-03T13:46:55;16.60;6.90
37678;DHT22;23517;50.390;8.616;2023-05-03T13:49:22;16.70;6.30
37678;DHT22;23517;50.390;8.616;2023-05-03T13:51:50;16.60;6.60
37678;DHT22;23517;50.390;8.616;2023-05-03T13:54:17;16.60;7.20
37678;DHT22;23517;50.390;8.616;2023-05-03T13:56:43;16.70;6.30
37678;DHT22;23517;50.390;8.616;2023-05-03T13:59:11;16.50;6.50
37678;DHT22;23517;50.390;8.616;2023-05-03T14:01:41;16.40;7.40
37678;DHT22;23517;50.390;8.616;2023-05-03T14:04:08;16.60;7.60
37678;DHT22;23517;50.390;8.616;2023-05-03T14:06:36;16.90;7.00
37678;DHT22;23517;50.390;8.616;2023-05-03T14:09:06;17.00;6.20
37678;DHT22;23517;50.390;8.616;2023-05-03T14:11:32;16.90;6.50
37678;DHT22;23517;50.390;8.616;2023-05-03T14:13:59;17.00;5.70
37678;DHT22;23517;50.390;8.616;2023-05-03T14:16:26;17.10;5.60
37678;DHT22;23517;50.390;8.616;2023-05-03T14:18:56;17.20;5.60
37678;DHT22;23517;50.390;8.616;2023-05-03T14:21:22;17.20;6.20
37678;DHT22;23517;50.390;8.616;2023-05-03T14:23:49;17.40;6.30
37678;DHT22;23517;50.390;8.616;2023-05-03T14:26:18;17.30;6.00
37678;DHT22;23517;50.390;8.616;2023-05-03T14:28:45;17.30;5.60
37678;DHT22;23517;50.390;8.616;2023-05-03T14:31:11;17.40;6.60
37678;DHT22;23517;50.390;8.616;2023-05-03T14:33:38;17.40;5.80
37678;DHT22;23517;50.390;8.616;2023-05-03T14:36:06;17.40;5.30
37678;DHT22;23517;50.390;8.616;2023-05-03T14:38:35;17.40;5.10
37678;DHT22;23517;50.390;8.616;2023-05-03T14:41:02;17.30;5.10
37678;DHT22;23517;50.390;8.616;2023-05-03T14:43:30;17.20;5.90
37678;DHT22;23517;50.390;8.616;2023-05-03T14:45:57;17.30;5.80
37678;DHT22;23517;50.390;8.616;2023-05-03T14:48:24;17.40;5.40
37678;DHT22;23517;50.390;8.616;2023-05-03T14:50:51;17.40;5.40
37678;DHT22;23517;50.390;8.616;2023-05-03T14:53:18;17.40;4.90
37678;DHT22;23517;50.390;8.616;2023-05-03T14:55:45;17.60;5.40
37678;DHT22;23517;50.390;8.616;2023-05-03T14:58:12;17.60;5.50
37678;DHT22;23517;50.390;8.616;2023-05-03T15:00:39;17.60;5.80
37678;DHT22;23517;50.390;8.616;2023-05-03T15:03:08;17.70;5.70
37678;DHT22;23517;50.390;8.616;2023-05-03T15:05:48;17.70;5.30
37678;DHT22;23517;50.390;8.616;2023-05-03T15:08:17;17.70;6.10
37678;DHT22;23517;50.390;8.616;2023-05-03T15:10:45;17.80;5.00
37678;DHT22;23517;50.390;8.616;2023-05-03T15:13:13;17.90;5.40
37678;DHT22;23517;50.390;8.616;2023-05-03T15:15:42;17.80;5.70
37678;DHT22;23517;50.390;8.616;2023-05-03T15:18:09;17.90;5.40
37678;DHT22;23517;50.390;8.616;2023-05-03T15:20:37;17.90;5.10
37678;DHT22;23517;50.390;8.616;2023-05-03T15:23:03;17.80;5.20
37678;DHT22;23517;50.390;8.616;2023-05-03T15:25:30;17.90;5.00
37678;DHT22;23517;50.390;8.616;2023-05-03T15:27:58;18.10;4.70
37678;DHT22;23517;50.390;8.616;2023-05-03T15:30:29;18.20;4.30
37678;DHT22;23517;50.390;8.616;2023-05-03T15:32:56;18.20;4.50
37678;DHT22;23517;50.390;8.616;2023-05-03T15:35:23;18.10;5.20
37678;DHT22;23517;50.390;8.616;2023-05-03T15:37:50;18.00;5.00
37678;DHT22;23517;50.390;8.616;2023-05-03T15:40:16;17.80;5.10
37678;DHT22;23517;50.390;8.616;2023-05-03T15:42:44;17.80;5.60
37678;DHT22;23517;50.390;8.616;2023-05-03T15:45:10;17.80;6.40
37678;DHT22;23517;50.390;8.616;2023-05-03T15:47:38;17.80;5.90
37678;DHT22;23517;50.390;8.616;2023-05-03T15:50:05;17.70;5.80
37678;DHT22;23517;50.390;8.616;2023-05-03T15:52:34;17.70;5.70
37678;DHT22;23517;50.390;8.616;2023-05-03T15:55:00;17.80;5.80
37678;DHT22;23517;50.390;8.616;2023-05-03T15:57:27;17.80;5.40
37678;DHT22;23517;50.390;8.616;2023-05-03T15:59:56;17.80;5.50
37678;DHT22;23517;50.390;8.616;2023-05-03T16:02:22;17.80;6.30
37678;DHT22;23517;50.390;8.616;2023-05-03T16:04:49;17.90;6.00
37678;DHT22;23517;50.390;8.616;2023-05-03T16:07:16;18.00;5.80
37678;DHT22;23517;50.390;8.616;2023-05-03T16:09:43;17.90;5.20